Time;durP1;ratioP1;P1;durP2;ratioP2;P2;SDS_P1;SDS_P2;PMS_P1;PMS_P2;Temp;Humidity;BMP_temperature;BMP_pressure;BME280_temperature;BME280_humidity;BME280_pressure;Samples;Min_cycle;Max_cycle;Signal;HPM_P1;HPM_P2
2024/04/01 05:08:39;;;;;;;0.30;0.30;;;10.80;99.90;;;;;;4861093;29;20993;-61
2024/04/01 05:11:07;;;;;;;0.30;0.30;;;10.80;99.90;;;;;;4862073;29;20432;-62
2024/04/01 05:13:36;;;;;;;0.40;0.40;;;10.80;99.90;;;;;;4862317;29;20637;-62
2024/04/01 05:16:03;;;;;;;0.30;0.30;;;10.70;99.90;;;;;;4861621;29;20888;-62
2024/04/01 05:18:29;;;;;;;0.30;0.30;;;10.70;99.90;;;;;;4862026;29;20423;-62
2024/04/01 05:20:55;;;;;;;0.30;0.30;;;10.80;99.90;;;;;;4862104;29;20978;-62
2024/04/01 05:23:20;;;;;;;0.30;0.30;;;10.70;99.90;;;;;;4861948;29;20764;-62
2024/04/01 05:25:46;;;;;;;0.30;0.30;;;10.80;99.90;;;;;;4861439;29;20217;-62
2024/04/01 05:28:12;;;;;;;0.40;0.40;;;10.80;99.90;;;;;;4862005;29;20189;-62
2024/04/01 05:30:37;;;;;;;0.30;0.30;;;10.80;99.90;;;;;;4861600;29;20697;-62
2024/04/01 05:33:03;;;;;;;0.30;0.30;;;10.80;99.90;;;;;;4862083;29;20438;-62
2024/04/01 05:35:33;;;;;;;0.30;0.30;;;10.80;99.90;;;;;;4874917;29;20313;-62
2024/04/01 05:38:02;;;;;;;0.30;0.30;;;10.80;99.90;;;;;;4861311;29;20457;-62
2024/04/01 05:40:28;;;;;;;0.40;0.40;;;10.80;99.90;;;;;;4861577;29;20498;-63
2024/04/01 05:42:53;;;;;;;0.30;0.30;;;10.80;99.90;;;;;;4861766;29;20482;-62
2024/04/01 05:45:19;;;;;;;0.30;0.30;;;10.80;99.90;;;;;;4861120;29;20174;-61
2024/04/01 05:47:45;;;;;;;0.60;0.60;;;10.80;99.90;;;;;;4861490;29;20178;-62
2024/04/01 05:50:10;;;;;;;0.40;0.40;;;10.80;99.90;;;;;;4861414;29;20183;-61
2024/04/01 05:52:36;;;;;;;0.30;0.30;;;10.80;99.90;;;;;;4861590;29;20185;-61
2024/04/01 05:55:04;;;;;;;0.30;0.30;;;10.80;99.90;;;;;;4861067;29;20185;-62
2024/04/01 05:57:30;;;;;;;0.33;0.33;;;10.80;99.90;;;;;;4861386;29;20220;-61
2024/04/01 05:59:56;;;;;;;0.30;0.30;;;10.80;99.90;;;;;;4861292;29;20434;-62
2024/04/01 06:02:22;;;;;;;0.30;0.30;;;10.80;99.90;;;;;;4861444;29;20185;-62
2024/04/01 06:04:48;;;;;;;0.33;0.33;;;10.80;99.90;;;;;;4860877;29;20447;-62
2024/04/01 06:07:13;;;;;;;0.30;0.30;;;10.80;99.90;;;;;;4860988;29;20701;-62
2024/04/01 06:09:39;;;;;;;0.30;0.30;;;10.80;99.90;;;;;;4861322;29;20265;-62
2024/04/01 06:12:05;;;;;;;0.30;0.30;;;10.80;99.90;;;;;;4861196;29;20197;-63
2024/04/01 06:14:31;;;;;;;0.30;0.30;;;10.80;99.90;;;;;;4860758;29;20181;-63
2024/04/01 06:16:56;;;;;;;0.30;0.30;;;10.80;99.90;;;;;;4860864;29;20582;-62
2024/04/01 06:19:22;;;;;;;0.40;0.40;;;10.80;99.90;;;;;;4861107;29;20175;-62
2024/04/01 06:21:47;;;;;;;0.30;0.30;;;10.80;99.90;;;;;;4861088;29;20258;-62
2024/04/01 06:24:13;;;;;;;0.30;0.30;;;10.80;99.90;;;;;;4861004;29;20662;-62
2024/04/01 06:26:38;;;;;;;0.30;0.30;;;10.80;99.90;;;;;;4860619;29;20216;-62
2024/04/01 06:29:04;;;;;;;0.30;0.30;;;10.80;99.90;;;;;;4860727;29;20187;-63
2024/04/01 06:31:30;;;;;;;0.30;0.30;;;10.80;99.90;;;;;;4857815;29;20186;-61
2024/04/01 06:33:56;;;;;;;0.30;0.30;;;10.80;99.90;;;;;;4852583;29;20587;-62
2024/04/01 06:36:22;;;;;;;0.30;0.30;;;10.80;99.90;;;;;;4841966;29;20472;-61
2024/04/01 06:38:48;;;;;;;0.30;0.30;;;10.80;99.90;;;;;;4842532;29;20194;-61
2024/04/01 06:41:14;;;;;;;0.47;0.47;;;10.80;99.90;;;;;;4842320;29;20452;-61
2024/04/01 06:43:40;;;;;;;0.30;0.30;;;10.80;99.90;;;;;;4842333;29;20459;-61
2024/04/01 06:46:05;;;;;;;0.30;0.30;;;10.70;99.90;;;;;;4841985;29;20606;-62
2024/04/01 06:48:31;;;;;;;0.30;0.30;;;10.70;99.90;;;;;;4841856;29;20516;-62
2024/04/01 06:50:58;;;;;;;0.30;0.30;;;10.70;99.90;;;;;;4854859;29;20182;-62
2024/04/01 06:53:24;;;;;;;0.30;0.30;;;10.70;99.90;;;;;;4859643;29;20273;-62
2024/04/01 06:55:49;;;;;;;0.30;0.30;;;10.70;99.90;;;;;;4860187;29;20589;-63
2024/04/01 06:58:15;;;;;;;0.30;0.30;;;10.70;99.90;;;;;;4860456;29;20544;-63
2024/04/01 07:00:41;;;;;;;0.30;0.30;;;10.70;99.90;;;;;;4860650;29;20532;-63
2024/04/01 07:03:07;;;;;;;0.40;0.40;;;10.70;99.90;;;;;;4860610;29;20173;-63
2024/04/01 07:05:34;;;;;;;0.57;0.57;;;10.70;99.90;;;;;;4860187;29;20498;-63
2024/04/01 07:08:00;;;;;;;0.30;0.30;;;10.70;99.90;;;;;;4860354;29;20519;-63
2024/04/01 07:10:26;;;;;;;0.30;0.30;;;10.70;99.90;;;;;;4860607;29;20423;-63
2024/04/01 07:12:52;;;;;;;0.30;0.30;;;10.70;99.90;;;;;;4860501;29;20408;-63
2024/04/01 07:15:18;;;;;;;0.50;0.50;;;10.70;99.90;;;;;;4859973;29;20958;-63
2024/04/01 07:17:43;;;;;;;0.30;0.30;;;10.70;99.90;;;;;;4860513;29;20262;-63
2024/04/01 07:20:09;;;;;;;0.30;0.30;;;10.70;99.90;;;;;;4860509;29;20172;-65
2024/04/01 07:22:36;;;;;;;0.30;0.30;;;10.70;99.90;;;;;;4860628;29;20182;-63
2024/04/01 07:25:04;;;;;;;0.30;0.30;;;10.70;99.90;;;;;;4860067;29;20415;-63
2024/04/01 07:27:34;;;;;;;0.30;0.30;;;10.70;99.90;;;;;;4859381;29;20426;-65
2024/04/01 07:30:00;;;;;;;0.30;0.30;;;10.70;99.90;;;;;;4858409;29;20411;-62
2024/04/01 07:32:25;;;;;;;0.77;0.77;;;10.70;99.90;;;;;;4841933;29;20443;-64
2024/04/01 07:34:51;;;;;;;0.40;0.40;;;10.70;99.90;;;;;;4842625;29;20934;-64
2024/04/01 07:37:17;;;;;;;0.50;0.50;;;10.70;99.90;;;;;;4859621;29;20221;-63
2024/04/01 07:39:42;;;;;;;0.67;0.67;;;10.70;99.90;;;;;;4860149;29;20206;-64
2024/04/01 07:42:08;;;;;;;0.33;0.33;;;10.70;99.90;;;;;;4860038;29;20637;-62
2024/04/01 07:44:33;;;;;;;0.30;0.30;;;10.70;99.90;;;;;;4859916;29;20178;-62
2024/04/01 07:46:59;;;;;;;0.40;0.40;;;10.70;99.90;;;;;;4872814;29;20680;-62
2024/04/01 07:49:25;;;;;;;0.30;0.30;;;10.70;99.90;;;;;;4860141;29;20189;-62
2024/04/01 07:51:51;;;;;;;0.33;0.33;;;10.70;99.90;;;;;;4858158;29;20398;-62
2024/04/01 07:54:17;;;;;;;0.30;0.30;;;10.60;99.90;;;;;;4855334;29;20278;-62
2024/04/01 07:56:43;;;;;;;0.40;0.40;;;10.60;99.90;;;;;;4848358;29;20955;-62
2024/04/01 07:59:08;;;;;;;0.30;0.30;;;10.60;99.90;;;;;;4838182;29;20185;-62
2024/04/01 08:01:34;;;;;;;0.30;0.30;;;10.60;99.90;;;;;;4851626;29;20183;-62
2024/04/01 08:04:00;;;;;;;0.30;0.30;;;10.60;99.90;;;;;;4860114;29;20183;-62
2024/04/01 08:06:25;;;;;;;0.30;0.30;;;10.60;99.90;;;;;;4857923;29;20285;-62
2024/04/01 08:08:51;;;;;;;0.30;0.30;;;10.60;99.90;;;;;;4843788;29;20196;-63
2024/04/01 08:11:16;;;;;;;0.30;0.30;;;10.60;99.90;;;;;;4841475;29;20654;-60
2024/04/01 08:13:42;;;;;;;0.30;0.30;;;10.60;99.90;;;;;;4841535;29;20182;-64
2024/04/01 08:16:08;;;;;;;0.30;0.30;;;10.60;99.90;;;;;;4847628;29;20220;-63
2024/04/01 08:18:35;;;;;;;0.30;0.30;;;10.60;99.90;;;;;;4859655;29;20178;-63
2024/04/01 08:21:00;;;;;;;0.33;0.33;;;10.70;99.90;;;;;;4859689;29;20649;-63
2024/04/01 08:23:26;;;;;;;0.33;0.33;;;10.70;99.90;;;;;;4860048;29;20426;-66
2024/04/01 08:25:52;;;;;;;0.30;0.30;;;10.70;99.90;;;;;;4861054;29;20202;-65
2024/04/01 08:28:17;;;;;;;0.30;0.30;;;10.80;99.90;;;;;;4849993;29;20184;-67
2024/04/01 08:30:43;;;;;;;0.30;0.30;;;10.80;99.90;;;;;;4845153;29;20202;-67
2024/04/01 08:33:09;;;;;;;0.30;0.30;;;10.80;99.90;;;;;;4862896;29;20191;-68
2024/04/01 08:35:35;;;;;;;0.30;0.30;;;10.80;99.90;;;;;;4860524;29;20531;-71
2024/04/01 08:38:02;;;;;;;0.30;0.30;;;10.80;99.90;;;;;;4844156;29;20482;-64
2024/04/01 08:40:32;;;;;;;0.40;0.40;;;10.80;99.90;;;;;;4844173;29;20269;-65
2024/04/01 08:43:03;;;;;;;0.40;0.40;;;10.90;99.90;;;;;;4852457;29;20862;-65
2024/04/01 08:45:38;;;;;;;0.40;0.40;;;10.90;99.90;;;;;;4862480;29;20430;-65
2024/04/01 08:48:09;;;;;;;0.30;0.30;;;10.90;99.90;;;;;;4845910;29;20506;-64
2024/04/01 08:50:39;;;;;;;0.30;0.30;;;11.00;99.90;;;;;;4844304;29;20467;-64
2024/04/01 08:53:12;;;;;;;0.30;0.30;;;11.00;99.90;;;;;;4844118;29;20432;-64
2024/04/01 08:55:37;;;;;;;0.30;0.30;;;11.10;99.90;;;;;;4859159;29;20455;-64
2024/04/01 08:58:06;;;;;;;0.30;0.30;;;11.20;99.90;;;;;;4862588;29;20416;-65
2024/04/01 09:00:32;;;;;;;0.30;0.30;;;11.30;99.90;;;;;;4859870;29;20262;-63
2024/04/01 09:02:59;;;;;;;0.30;0.30;;;11.30;99.90;;;;;;4843503;29;20478;-66
2024/04/01 09:05:24;;;;;;;0.40;0.40;;;11.40;99.90;;;;;;4843194;29;20575;-64
2024/04/01 09:07:50;;;;;;;0.30;0.30;;;11.50;99.90;;;;;;4843736;29;20483;-62
2024/04/01 09:10:23;;;;;;;0.40;0.40;;;11.50;99.90;;;;;;4844666;29;20266;-61
2024/04/01 09:12:53;;;;;;;0.30;0.30;;;11.60;99.90;;;;;;4853006;29;20186;-65
2024/04/01 09:15:20;;;;;;;0.30;0.30;;;11.70;99.90;;;;;;4844521;29;20521;-63
2024/04/01 09:17:46;;;;;;;0.30;0.30;;;11.80;99.90;;;;;;4861863;29;20395;-63
2024/04/01 09:20:12;;;;;;;0.30;0.30;;;11.90;99.90;;;;;;4861909;29;20808;-64
2024/04/01 09:22:37;;;;;;;0.30;0.30;;;12.00;99.90;;;;;;4861480;29;20176;-66
2024/04/01 09:25:03;;;;;;;0.30;0.30;;;12.10;99.90;;;;;;4861563;29;20386;-63
2024/04/01 09:27:29;;;;;;;0.30;0.30;;;12.30;99.90;;;;;;4861763;29;20291;-68
2024/04/01 09:29:55;;;;;;;0.40;0.40;;;12.40;99.90;;;;;;4861533;29;20512;-65
2024/04/01 09:32:20;;;;;;;0.30;0.30;;;12.40;99.90;;;;;;4845018;29;20197;-63
2024/04/01 09:34:46;;;;;;;0.30;0.30;;;12.50;99.90;;;;;;4842882;29;20628;-62
2024/04/01 09:37:12;;;;;;;0.30;0.30;;;12.60;99.90;;;;;;4843215;29;20258;-61
2024/04/01 09:39:37;;;;;;;0.30;0.30;;;12.60;99.90;;;;;;4840436;29;20178;-62
2024/04/01 09:42:06;;;;;;;0.30;0.30;;;12.70;99.90;;;;;;4838636;29;20195;-63
2024/04/01 09:44:33;;;;;;;0.30;0.30;;;12.80;99.90;;;;;;4839525;29;20177;-61
2024/04/01 09:46:59;;;;;;;0.30;0.30;;;13.00;99.90;;;;;;4856723;29;20453;-62
2024/04/01 09:49:27;;;;;;;0.30;0.30;;;13.10;99.90;;;;;;4861511;29;20425;-63
2024/04/01 09:51:53;;;;;;;0.30;0.30;;;13.20;99.90;;;;;;4858302;29;20414;-63
2024/04/01 09:54:19;;;;;;;0.30;0.30;;;13.40;99.90;;;;;;4842893;29;20427;-63
2024/04/01 09:57:19;;;;;;;0.30;0.30;;;13.40;99.90;;;;;;4840389;29;20439;-63
2024/04/01 10:00:09;;;;;;;0.40;0.40;;;13.40;99.90;;;;;;4838861;29;20688;-63
2024/04/01 10:03:04;;;;;;;0.30;0.30;;;13.40;99.90;;;;;;4840749;29;20447;-62
2024/04/01 10:05:44;;;;;;;0.30;0.30;;;13.40;99.90;;;;;;4842002;29;20485;-63
2024/04/01 10:08:31;;;;;;;0.30;0.30;;;13.60;99.90;;;;;;4841719;29;20406;-63
2024/04/01 10:11:29;;;;;;;0.30;0.30;;;13.70;99.90;;;;;;4842857;29;20428;-64
2024/04/01 10:14:04;;;;;;;0.30;0.30;;;13.80;99.90;;;;;;4852808;29;20810;-62
2024/04/01 10:16:52;;;;;;;0.30;0.30;;;13.60;99.90;;;;;;4849532;29;20780;-63
2024/04/01 10:19:40;;;;;;;0.40;0.40;;;13.50;99.90;;;;;;4844051;29;20418;-62
2024/04/01 10:22:10;;;;;;;0.30;0.30;;;13.40;99.90;;;;;;4842441;29;20754;-62
2024/04/01 10:25:03;;;;;;;0.30;0.30;;;13.50;99.90;;;;;;4841532;29;20428;-63
2024/04/01 10:27:38;;;;;;;0.30;0.30;;;13.50;99.90;;;;;;4853564;29;20800;-62
2024/04/01 10:30:32;;;;;;;0.30;0.30;;;13.60;99.90;;;;;;4860805;29;20465;-63
2024/04/01 10:33:27;;;;;;;0.30;0.30;;;13.60;99.90;;;;;;4842570;29;20541;-62
2024/04/01 10:36:08;;;;;;;0.30;0.30;;;13.60;99.90;;;;;;4841985;29;20786;-60
2024/04/01 10:38:43;;;;;;;0.30;0.30;;;13.50;99.90;;;;;;4842516;29;20832;-64
2024/04/01 10:41:29;;;;;;;0.30;0.30;;;13.50;99.90;;;;;;4842268;29;20384;-63
2024/04/01 10:44:18;;;;;;;0.30;0.30;;;13.50;99.90;;;;;;4842563;29;20483;-64
2024/04/01 10:46:55;;;;;;;0.30;0.30;;;13.40;99.90;;;;;;4842798;29;20533;-64
2024/04/01 10:49:33;;;;;;;0.30;0.30;;;13.30;99.90;;;;;;4841970;29;20422;-64
2024/04/01 10:52:32;;;;;;;0.30;0.30;;;13.30;99.90;;;;;;4842237;29;20487;-63
2024/04/01 10:55:26;;;;;;;0.30;0.30;;;13.20;99.90;;;;;;4846710;29;20926;-63
2024/04/01 10:58:12;;;;;;;0.30;0.30;;;13.10;99.90;;;;;;4858966;29;20788;-64
2024/04/01 11:01:02;;;;;;;0.30;0.30;;;13.10;99.90;;;;;;4858893;29;20767;-60
2024/04/01 11:04:01;;;;;;;0.30;0.30;;;13.00;99.90;;;;;;4860565;29;20465;-62
2024/04/01 11:06:52;;;;;;;0.30;0.30;;;12.90;99.90;;;;;;4847053;29;20812;-62
2024/04/01 11:09:37;;;;;;;0.30;0.30;;;12.80;99.90;;;;;;4860727;29;20428;-63
2024/04/01 11:12:25;;;;;;;0.30;0.30;;;12.90;99.90;;;;;;4860650;29;20403;-63
2024/04/01 11:14:54;;;;;;;0.30;0.30;;;13.00;99.90;;;;;;4856983;29;20393;-61
2024/04/01 11:17:19;;;;;;;0.30;0.30;;;13.10;99.90;;;;;;4851643;29;20476;-63
2024/04/01 11:20:22;;;;;;;0.30;0.30;;;13.20;99.90;;;;;;4845725;29;20400;-62
2024/04/01 11:22:50;;;;;;;0.30;0.30;;;13.30;99.90;;;;;;4841868;29;20648;-61
2024/04/01 11:25:37;;;;;;;0.30;0.30;;;13.30;99.90;;;;;;4841561;29;20545;-61
2024/04/01 11:28:24;;;;;;;0.30;0.30;;;13.20;99.90;;;;;;4842061;29;20547;-62
2024/04/01 11:31:09;;;;;;;0.30;0.30;;;13.10;99.90;;;;;;4850292;29;20492;-62
2024/04/01 11:33:42;;;;;;;0.30;0.30;;;13.10;99.90;;;;;;4859127;29;20412;-62
2024/04/01 11:36:12;;;;;;;0.30;0.30;;;13.30;99.90;;;;;;4859165;29;20465;-62
2024/04/01 11:39:00;;;;;;;0.40;0.40;;;13.40;99.90;;;;;;4863928;29;20396;-63
2024/04/01 11:41:27;;;;;;;0.40;0.40;;;13.70;99.90;;;;;;4863959;29;20418;-62
2024/04/01 11:43:53;;;;;;;0.30;0.30;;;14.00;99.90;;;;;;4863877;29;20426;-62
2024/04/01 11:46:20;;;;;;;0.30;0.30;;;14.00;99.90;;;;;;4851634;29;20455;-60
2024/04/01 11:48:55;;;;;;;0.30;0.30;;;14.00;99.90;;;;;;4845136;29;20431;-66
2024/04/01 11:51:31;;;;;;;0.30;0.30;;;13.90;99.90;;;;;;4845284;29;20835;-61
2024/04/01 11:53:57;;;;;;;0.30;0.30;;;13.80;99.90;;;;;;4844937;29;20403;-63
2024/04/01 11:56:42;;;;;;;0.30;0.30;;;13.60;99.90;;;;;;4858278;29;20551;-62
2024/04/01 11:59:11;;;;;;;0.30;0.30;;;13.40;99.90;;;;;;4863547;29;20911;-61
2024/04/01 12:01:38;;;;;;;0.30;0.30;;;13.30;99.90;;;;;;4847653;29;20426;-61
2024/04/01 12:04:05;;;;;;;0.30;0.30;;;13.20;99.90;;;;;;4847761;29;20407;-61
2024/04/01 12:06:33;;;;;;;0.30;0.30;;;13.10;99.90;;;;;;4859729;29;20443;-62
2024/04/01 12:09:08;;;;;;;0.30;0.30;;;13.00;99.90;;;;;;4863546;29;20388;-62
2024/04/01 12:11:33;;;;;;;0.30;0.30;;;13.00;99.90;;;;;;4847954;29;20456;-62
2024/04/01 12:14:01;;;;;;;0.30;0.20;;;13.00;99.90;;;;;;4844826;29;20791;-62
2024/04/01 12:16:32;;;;;;;0.30;0.30;;;13.10;99.90;;;;;;4855011;29;20219;-62
2024/04/01 12:19:00;;;;;;;0.30;0.20;;;13.20;99.90;;;;;;4861062;29;20399;-62
2024/04/01 12:21:29;;;;;;;0.30;0.30;;;13.30;99.90;;;;;;4845178;29;20798;-62
2024/04/01 12:23:55;;;;;;;0.30;0.30;;;13.40;99.90;;;;;;4842999;29;20390;-62
2024/04/01 12:26:21;;;;;;;0.30;0.20;;;13.50;99.90;;;;;;4842578;29;20707;-66
2024/04/01 12:28:47;;;;;;;0.30;0.30;;;13.50;99.90;;;;;;4842899;29;20513;-62
2024/04/01 12:31:17;;;;;;;0.30;0.30;;;13.50;99.90;;;;;;4858156;29;20426;-61
2024/04/01 12:33:45;;;;;;;0.30;0.30;;;13.50;99.90;;;;;;4862831;29;20264;-63
2024/04/01 12:36:13;;;;;;;0.30;0.30;;;13.60;99.90;;;;;;4861783;29;20459;-64
2024/04/01 12:38:41;;;;;;;0.30;0.30;;;13.90;99.90;;;;;;4862942;29;20401;-62
2024/04/01 12:41:08;;;;;;;0.30;0.30;;;14.20;99.90;;;;;;4850430;29;20401;-62
2024/04/01 12:43:35;;;;;;;0.30;0.30;;;14.40;99.90;;;;;;4860812;29;20447;-62
2024/04/01 12:46:01;;;;;;;1.17;1.07;;;14.30;99.90;;;;;;4861434;29;20433;-62
2024/04/01 12:48:28;;;;;;;0.30;0.30;;;14.30;99.90;;;;;;4854955;29;20836;-63
2024/04/01 12:50:56;;;;;;;0.30;0.30;;;14.20;99.90;;;;;;4844327;29;20493;-63
2024/04/01 12:53:27;;;;;;;0.30;0.30;;;14.10;99.90;;;;;;4843967;29;20432;-64
2024/04/01 12:56:16;;;;;;;0.33;0.33;;;14.00;99.90;;;;;;4843656;29;20450;-61
2024/04/01 12:59:02;;;;;;;0.30;0.30;;;14.00;99.90;;;;;;4847798;29;20399;-60
2024/04/01 13:01:52;;;;;;;0.30;0.30;;;14.00;99.90;;;;;;4860867;29;20392;-62
2024/04/01 13:04:32;;;;;;;0.30;0.30;;;14.10;99.90;;;;;;4850817;29;20461;-64
2024/04/01 13:07:13;;;;;;;0.30;0.27;;;14.30;99.90;;;;;;4846712;29;20464;-62
2024/04/01 13:09:49;;;;;;;0.30;0.20;;;14.40;99.90;;;;;;4859398;29;20406;-62
2024/04/01 13:12:40;;;;;;;0.30;0.30;;;14.40;99.90;;;;;;4862279;29;20393;-62
2024/04/01 13:15:35;;;;;;;0.30;0.30;;;14.40;99.90;;;;;;4844171;29;20411;-62
2024/04/01 13:18:11;;;;;;;0.33;0.33;;;14.40;99.40;;;;;;4843972;29;20398;-62
2024/04/01 13:21:23;;;;;;;0.30;0.30;;;14.30;99.40;;;;;;4843551;29;20881;-61
2024/04/01 13:24:03;;;;;;;0.30;0.30;;;14.20;99.90;;;;;;4842525;29;20498;-64
2024/04/01 13:26:33;;;;;;;0.30;0.20;;;14.30;99.90;;;;;;4843289;29;20502;-62
2024/04/01 13:29:01;;;;;;;0.30;0.30;;;14.30;99.50;;;;;;4850196;29;20770;-62
2024/04/01 13:31:56;;;;;;;0.30;0.30;;;14.30;98.70;;;;;;4861887;29;20408;-60
2024/04/01 13:34:29;;;;;;;0.30;0.30;;;14.20;98.70;;;;;;4859610;29;20932;-61
2024/04/01 13:37:16;;;;;;;0.30;0.30;;;14.20;99.20;;;;;;4861637;29;20474;-63
2024/04/01 13:40:06;;;;;;;0.30;0.30;;;14.10;98.60;;;;;;4848816;29;20803;-63
2024/04/01 13:42:56;;;;;;;0.30;0.30;;;14.00;99.00;;;;;;4843043;29;20394;-61
2024/04/01 13:45:22;;;;;;;0.30;0.30;;;13.90;99.40;;;;;;4857892;29;20417;-62
2024/04/01 13:48:18;;;;;;;0.30;0.30;;;13.80;99.20;;;;;;4860499;29;20872;-62
2024/04/01 13:50:59;;;;;;;0.30;0.30;;;13.80;99.40;;;;;;4852026;29;20186;-62
2024/04/01 13:53:45;;;;;;;0.30;0.30;;;13.80;99.40;;;;;;4842793;29;20442;-61
2024/04/01 13:56:35;;;;;;;0.30;0.30;;;13.80;99.30;;;;;;4842440;29;20464;-62
2024/04/01 13:59:36;;;;;;;0.30;0.30;;;14.00;99.60;;;;;;4849126;29;20404;-61
2024/04/01 14:02:34;;;;;;;0.30;0.30;;;14.10;99.10;;;;;;4853049;29;20394;-63
2024/04/01 14:05:45;;;;;;;0.30;0.30;;;14.10;98.80;;;;;;4842338;29;20450;-62
2024/04/01 14:08:24;;;;;;;0.30;0.30;;;14.00;98.50;;;;;;4850751;29;20446;-62
2024/04/01 14:11:12;;;;;;;0.30;0.30;;;14.00;98.70;;;;;;4850085;29;20488;-61
2024/04/01 14:13:55;;;;;;;0.30;0.30;;;14.00;98.30;;;;;;4848571;29;20414;-60
2024/04/01 14:16:44;;;;;;;0.30;0.30;;;14.00;98.80;;;;;;4843133;29;20471;-62
2024/04/01 14:19:09;;;;;;;0.30;0.30;;;14.10;98.90;;;;;;4842650;29;20409;-64
2024/04/01 14:21:36;;;;;;;0.30;0.30;;;14.10;98.00;;;;;;4842594;29;20395;-62
2024/04/01 14:24:01;;;;;;;1.03;0.93;;;14.10;97.30;;;;;;4842627;29;20177;-62
2024/04/01 14:26:27;;;;;;;0.30;0.30;;;14.10;97.50;;;;;;4842106;29;20429;-61
2024/04/01 14:28:54;;;;;;;0.30;0.30;;;14.10;97.30;;;;;;4843892;29;20214;-60
2024/04/01 14:31:20;;;;;;;0.30;0.30;;;14.10;96.80;;;;;;4860751;29;20655;-61
2024/04/01 14:33:45;;;;;;;0.30;0.30;;;14.00;96.70;;;;;;4859648;29;20929;-61
2024/04/01 14:36:11;;;;;;;0.30;0.30;;;14.10;96.80;;;;;;4859907;29;20549;-61
2024/04/01 14:38:37;;;;;;;0.30;0.30;;;14.10;96.80;;;;;;4860278;29;20180;-60
2024/04/01 14:41:03;;;;;;;0.30;0.30;;;14.10;96.90;;;;;;4859860;29;20457;-60
2024/04/01 14:43:29;;;;;;;0.30;0.30;;;14.20;97.30;;;;;;4860851;29;20427;-61
2024/04/01 14:45:57;;;;;;;0.30;0.30;;;14.20;96.70;;;;;;4844334;29;20202;-62
2024/04/01 14:48:23;;;;;;;0.30;0.30;;;14.20;96.50;;;;;;4842320;29;20405;-68
2024/04/01 14:50:49;;;;;;;0.33;0.33;;;14.40;96.20;;;;;;4842267;29;20810;-62
2024/04/01 14:53:15;;;;;;;0.30;0.30;;;14.40;96.10;;;;;;4842217;29;20444;-60
2024/04/01 14:55:41;;;;;;;0.30;0.30;;;14.40;96.20;;;;;;4845173;29;20442;-62
2024/04/01 14:58:07;;;;;;;0.33;0.33;;;14.40;96.40;;;;;;4859052;29;20522;-61
2024/04/01 15:00:34;;;;;;;0.30;0.30;;;14.40;95.90;;;;;;4849507;29;20264;-61
2024/04/01 15:03:07;;;;;;;0.30;0.30;;;14.30;95.70;;;;;;4841792;29;20413;-61
2024/04/01 15:05:33;;;;;;;0.30;0.30;;;14.40;96.10;;;;;;4841435;29;20412;-60
2024/04/01 15:08:00;;;;;;;0.30;0.30;;;14.30;96.40;;;;;;4842664;29;20867;-60
2024/04/01 15:10:27;;;;;;;0.30;0.30;;;14.30;95.70;;;;;;4844610;29;20404;-60
2024/04/01 15:13:05;;;;;;;0.30;0.30;;;14.20;95.80;;;;;;4845657;29;20401;-60
2024/04/01 15:15:33;;;;;;;0.30;0.30;;;14.10;96.20;;;;;;4858495;29;20448;-60
2024/04/01 15:18:00;;;;;;;0.30;0.30;;;13.90;96.70;;;;;;4864196;29;20432;-61
2024/04/01 15:20:27;;;;;;;0.30;0.30;;;13.80;96.90;;;;;;4863396;29;20874;-61
2024/04/01 15:22:53;;;;;;;0.30;0.30;;;13.60;97.50;;;;;;4858540;29;20424;-61
2024/04/01 15:25:19;;;;;;;0.40;0.40;;;13.50;98.00;;;;;;4845166;29;20422;-60
2024/04/01 15:27:45;;;;;;;0.40;0.40;;;13.30;98.10;;;;;;4845610;29;20418;-60
2024/04/01 15:30:12;;;;;;;0.60;0.60;;;13.10;98.10;;;;;;4854197;29;20761;-60
2024/04/01 15:32:40;;;;;;;0.30;0.30;;;13.10;98.80;;;;;;4863740;29;20233;-60
2024/04/01 15:35:06;;;;;;;0.30;0.30;;;13.10;98.60;;;;;;4863204;29;20426;-61
2024/04/01 15:37:33;;;;;;;0.30;0.30;;;13.10;98.80;;;;;;4862905;29;20961;-60
2024/04/01 15:40:03;;;;;;;0.30;0.30;;;13.10;99.10;;;;;;4863780;29;20420;-61
2024/04/01 15:42:28;;;;;;;0.30;0.30;;;13.00;99.20;;;;;;4863635;29;20415;-61
2024/04/01 15:44:54;;;;;;;0.40;0.40;;;13.00;99.40;;;;;;4856078;29;20422;-61
2024/04/01 15:47:21;;;;;;;0.30;0.30;;;13.00;99.40;;;;;;4845184;29;20945;-62
2024/04/01 15:49:47;;;;;;;0.33;0.33;;;12.90;99.30;;;;;;4845315;29;20181;-62
2024/04/01 15:52:12;;;;;;;0.40;0.40;;;12.90;99.80;;;;;;4845274;29;20413;-61
2024/04/01 15:54:38;;;;;;;0.30;0.30;;;12.80;99.90;;;;;;4844933;29;20185;-62
2024/04/01 15:57:05;;;;;;;0.30;0.30;;;12.80;99.90;;;;;;4844980;29;20207;-62
2024/04/01 15:59:31;;;;;;;0.30;0.30;;;12.80;99.90;;;;;;4875391;29;20196;-60
2024/04/01 16:01:57;;;;;;;0.30;0.30;;;12.80;99.90;;;;;;4858732;29;20432;-61
2024/04/01 16:04:23;;;;;;;0.30;0.30;;;12.70;99.80;;;;;;4861772;29;20428;-60
2024/04/01 16:06:51;;;;;;;0.30;0.30;;;12.70;99.90;;;;;;4858493;29;20602;-60
2024/04/01 16:09:17;;;;;;;0.30;0.30;;;12.60;99.90;;;;;;4863153;29;20422;-61
2024/04/01 16:11:44;;;;;;;0.30;0.30;;;12.60;99.90;;;;;;4863524;29;20437;-61
2024/04/01 16:14:17;;;;;;;0.30;0.30;;;12.60;99.90;;;;;;4861885;29;20854;-60
2024/04/01 16:16:44;;;;;;;0.30;0.30;;;12.60;99.90;;;;;;4862319;29;20473;-61
2024/04/01 16:19:19;;;;;;;0.30;0.30;;;12.60;99.90;;;;;;4850554;29;20924;-61
2024/04/01 16:22:01;;;;;;;0.30;0.30;;;12.60;99.90;;;;;;4843535;29;20421;-60
2024/04/01 16:24:33;;;;;;;0.30;0.30;;;12.60;99.90;;;;;;4844554;29;20376;-59
2024/04/01 16:27:05;;;;;;;0.30;0.30;;;12.60;99.90;;;;;;4844283;29;20903;-60
2024/04/01 16:29:38;;;;;;;0.30;0.30;;;12.60;99.90;;;;;;4844375;29;20535;-61
2024/04/01 16:32:04;;;;;;;0.30;0.30;;;12.50;99.90;;;;;;4846314;29;20522;-60
2024/04/01 16:34:30;;;;;;;0.30;0.30;;;12.50;99.90;;;;;;4860582;29;20950;-66
2024/04/01 16:36:56;;;;;;;0.30;0.30;;;12.50;99.90;;;;;;4845857;29;20473;-62
2024/04/01 16:39:22;;;;;;;0.33;0.33;;;12.40;99.90;;;;;;4844213;29;20385;-63
2024/04/01 16:41:47;;;;;;;0.30;0.30;;;12.40;99.90;;;;;;4844377;29;20268;-62
2024/04/01 16:44:14;;;;;;;0.30;0.30;;;12.40;99.90;;;;;;4845395;29;20528;-62
2024/04/01 16:46:39;;;;;;;0.30;0.30;;;12.30;99.90;;;;;;4854581;29;20200;-62
2024/04/01 16:49:06;;;;;;;0.30;0.30;;;12.30;99.90;;;;;;4862543;29;20432;-61
2024/04/01 16:51:33;;;;;;;0.30;0.30;;;12.20;99.90;;;;;;4862640;29;20290;-61
2024/04/01 16:53:59;;;;;;;0.30;0.30;;;12.20;99.90;;;;;;4862244;29;20406;-60
2024/04/01 16:56:26;;;;;;;0.30;0.30;;;12.10;99.90;;;;;;4861997;29;20817;-61
2024/04/01 16:58:51;;;;;;;0.30;0.30;;;12.00;99.90;;;;;;4861839;29;20495;-60
2024/04/01 17:01:18;;;;;;;0.30;0.30;;;12.00;99.90;;;;;;4852772;29;20516;-61
2024/04/01 17:03:43;;;;;;;0.40;0.40;;;11.90;99.90;;;;;;4843917;29;20211;-62
2024/04/01 17:06:10;;;;;;;0.40;0.40;;;11.80;99.90;;;;;;4842038;29;20810;-62
2024/04/01 17:08:36;;;;;;;0.47;0.47;;;11.80;99.90;;;;;;4846305;29;20323;-63
2024/04/01 17:11:02;;;;;;;0.30;0.30;;;11.70;99.90;;;;;;4851065;29;20436;-63
2024/04/01 17:13:29;;;;;;;0.40;0.40;;;11.70;99.90;;;;;;4855293;29;20566;-61
2024/04/01 17:15:56;;;;;;;0.40;0.40;;;11.60;99.90;;;;;;4857852;29;20440;-62
2024/04/01 17:18:23;;;;;;;0.30;0.30;;;11.60;99.90;;;;;;4843541;29;20443;-63
2024/04/01 17:20:49;;;;;;;0.30;0.30;;;11.60;99.90;;;;;;4843449;29;20425;-63
2024/04/01 17:23:16;;;;;;;0.30;0.30;;;11.50;99.90;;;;;;4844421;29;20452;-61
2024/04/01 17:25:43;;;;;;;0.30;0.20;;;11.50;99.90;;;;;;4855415;29;20431;-61
2024/04/01 17:28:10;;;;;;;0.30;0.30;;;11.50;99.90;;;;;;4861548;29;20262;-61
2024/04/01 17:30:37;;;;;;;0.40;0.40;;;11.50;99.90;;;;;;4854487;29;20816;-61
2024/04/01 17:33:04;;;;;;;0.40;0.40;;;11.50;99.90;;;;;;4861199;29;20955;-61
2024/04/01 17:35:30;;;;;;;0.30;0.30;;;11.50;99.90;;;;;;4847708;29;20436;-60
2024/04/01 17:37:56;;;;;;;0.30;0.30;;;11.50;99.90;;;;;;4843093;29;20496;-61
2024/04/01 17:40:22;;;;;;;0.30;0.30;;;11.40;99.90;;;;;;4841775;29;20424;-59
2024/04/01 17:42:48;;;;;;;0.30;0.30;;;11.40;99.90;;;;;;4858159;29;20424;-63
2024/04/01 17:45:17;;;;;;;0.30;0.30;;;11.40;99.90;;;;;;4855780;29;20438;-60
2024/04/01 17:47:45;;;;;;;0.30;0.30;;;11.40;99.90;;;;;;4845710;29;20193;-66
2024/04/01 17:50:13;;;;;;;0.30;0.30;;;11.50;99.90;;;;;;4842845;29;20407;-61
2024/04/01 17:52:39;;;;;;;0.30;0.30;;;11.50;99.90;;;;;;4860677;29;20952;-64
2024/04/01 17:55:06;;;;;;;0.30;0.30;;;11.40;99.90;;;;;;4859543;29;20474;-62
2024/04/01 17:57:32;;;;;;;0.40;0.40;;;11.40;99.90;;;;;;4860401;29;20906;-60
2024/04/01 17:59:58;;;;;;;0.30;0.30;;;11.30;99.90;;;;;;4860719;29;20915;-58
2024/04/01 18:02:27;;;;;;;0.30;0.30;;;11.30;99.90;;;;;;4849747;29;20427;-60
2024/04/01 18:04:53;;;;;;;0.30;0.30;;;11.20;99.90;;;;;;4860914;29;20178;-60
2024/04/01 18:07:21;;;;;;;0.40;0.40;;;11.10;99.90;;;;;;4854828;29;20465;-62
2024/04/01 18:09:47;;;;;;;0.30;0.30;;;11.00;99.90;;;;;;4842899;29;20424;-61
2024/04/01 18:12:13;;;;;;;0.30;0.30;;;10.90;99.90;;;;;;4842694;29;20937;-61
2024/04/01 18:14:40;;;;;;;0.30;0.30;;;10.90;99.90;;;;;;4856905;29;20423;-60